createdAt,value
2019-05-23T00:01:09.033Z,4.45
2019-05-23T00:04:08.645Z,5.10
2019-05-23T00:06:57.868Z,4.42
2019-05-23T00:09:48.577Z,4.58
2019-05-23T00:12:40.366Z,4.25
2019-05-23T00:15:35.375Z,3.62
2019-05-23T00:18:07.220Z,3.50
2019-05-23T00:20:42.180Z,3.70
2019-05-23T00:23:21.052Z,3.90
2019-05-23T00:25:53.050Z,3.00
2019-05-23T00:28:26.860Z,3.30
2019-05-23T00:31:00.412Z,3.27
2019-05-23T00:33:38.091Z,3.75
2019-05-23T00:36:09.709Z,3.00
2019-05-23T00:38:41.166Z,3.22
2019-05-23T00:41:19.497Z,3.20
2019-05-23T00:43:52.728Z,3.10
2019-05-23T00:46:25.159Z,2.80
2019-05-23T00:48:55.910Z,2.77
2019-05-23T00:51:32.998Z,3.10
2019-05-23T00:54:07.542Z,3.02
2019-05-23T00:56:40.201Z,3.02
2019-05-23T00:59:24.447Z,3.20
2019-05-23T01:01:50.437Z,3.20
2019-05-23T01:04:24.488Z,3.60
2019-05-23T01:07:02.353Z,3.47
2019-05-23T01:09:35.369Z,2.85
2019-05-23T01:12:08.769Z,3.47
2019-05-23T01:14:40.557Z,2.83
2019-05-23T01:17:13.271Z,3.10
2019-05-23T01:22:16.191Z,3.08
2019-05-23T01:24:49.952Z,3.50
2019-05-23T01:27:27.159Z,3.20
2019-05-23T01:30:01.595Z,3.02
2019-05-23T01:32:51.841Z,3.50
2019-05-23T01:35:27.855Z,3.22
2019-05-23T01:38:04.289Z,3.37
2019-05-23T01:40:37.140Z,3.20
2019-05-23T01:43:08.802Z,3.35
2019-05-23T01:45:40.707Z,3.33
2019-05-23T01:48:17.137Z,3.10
2019-05-23T01:51:00.837Z,3.17
2019-05-23T01:53:31.977Z,3.58
2019-05-23T01:56:10.989Z,3.08
2019-05-23T01:58:48.073Z,2.70
2019-05-23T02:01:17.600Z,3.40
2019-05-23T02:03:47.503Z,2.90
2019-05-23T02:06:19.526Z,3.12
2019-05-23T02:08:52.096Z,2.98
2019-05-23T02:11:27.168Z,3.15
2019-05-23T02:13:58.543Z,3.40
2019-05-23T02:16:29.572Z,3.12
2019-05-23T02:19:02.317Z,3.35
2019-05-23T02:24:04.943Z,3.37
2019-05-23T02:26:38.194Z,3.40
2019-05-23T02:29:12.569Z,3.50
2019-05-23T02:34:19.711Z,3.45
2019-05-23T02:36:47.432Z,3.60
2019-05-23T02:39:23.651Z,3.63
2019-05-23T02:41:56.422Z,3.70
2019-05-23T02:44:30.168Z,3.60
2019-05-23T02:47:13.867Z,3.80
2019-05-23T02:49:49.206Z,3.60
2019-05-23T02:52:25.076Z,3.90
2019-05-23T02:55:00.740Z,3.67
2019-05-23T02:57:37.126Z,3.83
2019-05-23T03:00:50.771Z,3.87
2019-05-23T03:03:06.764Z,4.30
2019-05-23T03:08:12.891Z,4.45
2019-05-23T03:10:52.756Z,4.00
2019-05-23T03:13:26.458Z,4.35
2019-05-23T03:15:58.422Z,4.40
2019-05-23T03:18:34.349Z,4.73
2019-05-23T03:21:04.136Z,4.78
2019-05-23T03:23:36.222Z,4.62
2019-05-23T03:26:40.737Z,4.93
2019-05-23T03:29:17.717Z,4.67
2019-05-23T03:32:03.903Z,4.60
2019-05-23T03:34:36.221Z,4.90
2019-05-23T03:37:09.351Z,4.40
2019-05-23T03:39:42.094Z,4.80
2019-05-23T03:42:16.098Z,4.70
2019-05-23T03:44:49.153Z,4.60
2019-05-23T03:47:22.028Z,4.90
2019-05-23T03:49:52.710Z,4.83
2019-05-23T03:52:25.735Z,4.28
2019-05-23T03:54:56.899Z,5.10
2019-05-23T03:57:29.983Z,4.62
2019-05-23T04:00:02.167Z,4.75
2019-05-23T04:02:36.088Z,5.42
2019-05-23T04:05:09.297Z,4.75
2019-05-23T04:07:44.678Z,5.08
2019-05-23T04:10:20.605Z,4.80
2019-05-23T04:12:54.168Z,4.62
2019-05-23T04:15:29.579Z,4.40
2019-05-23T04:18:02.270Z,3.70
2019-05-23T04:20:37.211Z,6.05
2019-05-23T04:23:15.091Z,4.03
2019-05-23T04:25:51.816Z,3.90
2019-05-23T04:28:23.857Z,4.22
2019-05-23T04:30:54.629Z,3.87
2019-05-23T04:33:24.237Z,4.05
2019-05-23T04:35:56.212Z,3.98
2019-05-23T04:38:26.139Z,4.33
2019-05-23T04:40:56.478Z,4.30
2019-05-23T04:43:26.265Z,4.17
2019-05-23T04:45:56.180Z,4.30
2019-05-23T04:48:25.910Z,4.80
2019-05-23T04:50:59.959Z,5.25
2019-05-23T04:53:28.221Z,5.50
2019-05-23T04:55:59.133Z,5.70
2019-05-23T04:58:28.819Z,5.72
2019-05-23T05:01:00.068Z,6.35
2019-05-23T05:03:35.377Z,5.83
2019-05-23T05:06:08.027Z,5.80
2019-05-23T05:08:41.302Z,6.15
2019-05-23T05:11:12.388Z,6.83
2019-05-23T05:13:49.378Z,7.22
2019-05-23T05:16:23.918Z,7.62
2019-05-23T05:18:55.256Z,7.42
2019-05-23T05:21:25.121Z,7.78
2019-05-23T05:23:54.594Z,7.90
2019-05-23T05:26:24.521Z,8.33
2019-05-23T05:28:59.091Z,6.72
2019-05-23T05:31:30.223Z,7.40
2019-05-23T05:34:00.157Z,7.28
2019-05-23T05:36:31.676Z,7.47
2019-05-23T05:39:01.172Z,7.62
2019-05-23T05:41:33.152Z,7.42
2019-05-23T05:44:02.783Z,7.67
2019-05-23T05:46:33.166Z,6.95
2019-05-23T05:49:03.506Z,7.47
2019-05-23T05:51:35.982Z,8.05
2019-05-23T05:54:08.688Z,7.50
2019-05-23T05:56:43.669Z,8.28
2019-05-23T05:59:18.220Z,8.03
2019-05-23T06:01:59.242Z,7.60
2019-05-23T06:04:30.552Z,7.87
2019-05-23T06:07:18.560Z,7.95
2019-05-23T06:09:51.848Z,7.55
2019-05-23T06:12:22.739Z,7.97
2019-05-23T06:14:55.727Z,8.43
2019-05-23T06:17:28.729Z,9.00
2019-05-23T06:20:07.059Z,7.47
2019-05-23T06:22:42.287Z,8.08
2019-05-23T06:25:13.231Z,8.18
2019-05-23T06:27:53.579Z,8.60
2019-05-23T06:30:28.347Z,8.45
2019-05-23T06:33:01.197Z,9.10
2019-05-23T06:35:32.433Z,8.55
2019-05-23T06:38:08.497Z,9.48
2019-05-23T06:40:45.198Z,11.08
2019-05-23T06:43:35.454Z,10.98
2019-05-23T06:49:20.263Z,10.90
2019-05-23T06:51:53.582Z,10.32
2019-05-23T06:54:27.771Z,10.95
2019-05-23T06:57:00.108Z,11.63
2019-05-23T06:59:32.552Z,10.08
2019-05-23T07:02:03.517Z,10.65
2019-05-23T07:04:33.234Z,10.63
2019-05-23T07:07:05.694Z,11.08
2019-05-23T07:09:39.930Z,10.88
2019-05-23T07:12:12.028Z,9.83
2019-05-23T07:14:48.595Z,9.83
2019-05-23T07:17:21.168Z,10.00
2019-05-23T07:19:52.806Z,10.75
2019-05-23T07:22:26.979Z,10.63
2019-05-23T07:24:59.135Z,10.58
2019-05-23T07:27:31.551Z,9.80
2019-05-23T07:30:03.262Z,10.20
2019-05-23T07:32:33.130Z,10.18
2019-05-23T07:35:06.776Z,9.80
2019-05-23T07:37:38.685Z,9.95
2019-05-23T07:40:11.527Z,9.73
2019-05-23T07:45:19.244Z,10.38
2019-05-23T07:47:56.291Z,9.65
2019-05-23T07:50:27.788Z,10.03
2019-05-23T07:53:00.362Z,9.80
2019-05-23T07:55:43.479Z,9.13
2019-05-23T07:58:14.907Z,10.48
2019-05-23T08:00:55.907Z,8.98
2019-05-23T08:03:29.506Z,9.13
2019-05-23T08:06:02.793Z,9.10
2019-05-23T08:08:34.513Z,9.73
2019-05-23T08:11:04.997Z,9.10
2019-05-23T08:13:37.221Z,8.43
2019-05-23T08:16:18.074Z,9.18
2019-05-23T08:18:53.445Z,8.43
2019-05-23T08:21:26.503Z,8.73
2019-05-23T08:23:58.041Z,8.75
2019-05-23T08:26:32.647Z,9.33
2019-05-23T08:29:25.631Z,9.15
2019-05-23T08:31:43.425Z,8.93
2019-05-23T08:34:13.127Z,8.73
2019-05-23T08:36:52.381Z,9.45
2019-05-23T08:39:24.036Z,9.73
2019-05-23T08:41:53.704Z,9.63
2019-05-23T08:44:25.301Z,9.38
2019-05-23T08:46:57.344Z,10.32
2019-05-23T08:49:29.725Z,10.38
2019-05-23T08:52:03.416Z,9.50
2019-05-23T08:54:38.737Z,9.58
2019-05-23T08:57:21.730Z,7.65
2019-05-23T08:59:51.282Z,9.68
2019-05-23T09:02:26.057Z,9.43
2019-05-23T09:05:21.561Z,8.93
2019-05-23T09:07:55.231Z,8.15
2019-05-23T09:10:27.816Z,8.00
2019-05-23T09:12:58.691Z,8.08
2019-05-23T09:15:31.907Z,8.23
2019-05-23T09:18:07.463Z,7.33
2019-05-23T09:20:38.778Z,8.50
2019-05-23T09:23:10.927Z,8.25
2019-05-23T09:25:41.654Z,9.43
2019-05-23T09:28:15.412Z,7.97
2019-05-23T09:30:51.357Z,6.30
2019-05-23T09:33:20.835Z,5.70
2019-05-23T09:35:51.419Z,6.00
2019-05-23T09:38:29.843Z,6.70
2019-05-23T09:41:00.891Z,6.92
2019-05-23T09:43:31.807Z,6.83
2019-05-23T09:46:02.740Z,5.87
2019-05-23T09:48:35.390Z,4.78
2019-05-23T09:51:05.946Z,4.22
2019-05-23T09:53:37.848Z,5.75
2019-05-23T09:56:07.338Z,4.00
2019-05-23T09:58:44.293Z,4.60
2019-05-23T10:01:26.533Z,4.78
2019-05-23T10:03:57.967Z,4.30
2019-05-23T10:06:28.973Z,4.40
2019-05-23T10:09:01.896Z,3.35
2019-05-23T10:11:33.422Z,3.37
2019-05-23T10:14:09.205Z,4.10
2019-05-23T10:16:46.085Z,3.77
2019-05-23T10:19:21.769Z,2.70
2019-05-23T10:21:55.779Z,2.45
2019-05-23T10:24:29.039Z,3.10
2019-05-23T10:27:03.444Z,3.22
2019-05-23T10:29:39.154Z,3.02
2019-05-23T10:32:15.822Z,2.87
2019-05-23T10:34:48.898Z,2.30
2019-05-23T10:37:26.198Z,1.90
2019-05-23T10:40:00.646Z,1.40
2019-05-23T10:42:36.268Z,1.60
2019-05-23T10:45:09.243Z,1.60
2019-05-23T10:47:57.800Z,1.85
2019-05-23T10:50:41.997Z,2.27
2019-05-23T10:53:00.041Z,4.75
2019-05-23T10:55:40.987Z,2.70
2019-05-23T10:58:11.472Z,2.22
2019-05-23T11:00:44.916Z,2.40
2019-05-23T11:03:16.314Z,2.42
2019-05-23T11:05:54.705Z,2.60
2019-05-23T11:08:30.402Z,2.60
2019-05-23T11:11:08.174Z,3.02
2019-05-23T11:13:45.109Z,2.62
2019-05-23T11:16:20.021Z,2.65
2019-05-23T11:19:04.854Z,2.30
2019-05-23T11:24:42.035Z,2.30
2019-05-23T11:27:25.725Z,2.55
2019-05-23T11:29:56.484Z,2.67
2019-05-23T11:32:32.802Z,2.10
2019-05-23T11:35:20.298Z,2.50
2019-05-23T11:38:00.942Z,2.60
2019-05-23T11:40:35.814Z,2.92
2019-05-23T11:43:10.139Z,2.83
2019-05-23T11:45:46.132Z,2.90
2019-05-23T11:48:21.619Z,2.87
2019-05-23T11:50:56.342Z,3.27
2019-05-23T11:53:27.954Z,2.72
2019-05-23T11:56:06.940Z,2.50
2019-05-23T11:58:39.556Z,2.67
2019-05-23T12:01:29.444Z,2.52
2019-05-23T12:04:05.820Z,2.40
2019-05-23T12:06:55.934Z,2.20
2019-05-23T12:09:30.614Z,2.67
2019-05-23T12:12:03.995Z,3.10
2019-05-23T12:14:40.811Z,3.87
2019-05-23T12:17:17.341Z,3.33
2019-05-23T12:19:58.222Z,2.52
2019-05-23T12:22:40.071Z,2.92
2019-05-23T12:25:21.962Z,3.67
2019-05-23T12:27:48.151Z,3.15
2019-05-23T12:30:21.223Z,2.75
2019-05-23T12:32:56.524Z,2.90
2019-05-23T12:35:33.224Z,3.30
2019-05-23T12:38:10.764Z,3.65
2019-05-23T12:43:44.793Z,3.35
2019-05-23T12:46:17.540Z,3.30
2019-05-23T12:48:55.908Z,4.15
2019-05-23T12:51:35.083Z,4.50
2019-05-23T12:54:09.153Z,4.08
2019-05-23T12:56:41.130Z,4.53
2019-05-23T12:59:18.035Z,4.10
2019-05-23T13:01:50.553Z,3.58
2019-05-23T13:04:35.823Z,4.08
2019-05-23T13:07:06.930Z,3.83
2019-05-23T13:09:42.509Z,3.92
2019-05-23T13:12:16.516Z,3.77
2019-05-23T13:48:34.517Z,3.60
2019-05-23T13:51:04.132Z,4.00
2019-05-23T13:53:35.550Z,3.20
2019-05-23T13:56:06.345Z,3.52
2019-05-23T13:58:36.481Z,2.83
2019-05-23T14:01:09.495Z,3.60
2019-05-23T14:03:37.804Z,3.40
2019-05-23T14:06:08.525Z,3.55
2019-05-23T14:08:38.041Z,3.37
2019-05-23T14:11:07.819Z,4.05
2019-05-23T14:13:37.417Z,3.80
2019-05-23T14:16:08.292Z,4.03
2019-05-23T14:18:37.797Z,4.92
2019-05-23T14:21:07.254Z,3.22
2019-05-23T14:23:39.043Z,3.00
2019-05-23T14:26:09.102Z,3.08
2019-05-23T14:28:40.702Z,3.30
2019-05-23T14:31:14.579Z,4.30
2019-05-23T14:33:45.755Z,2.92
2019-05-23T14:36:17.216Z,3.20
2019-05-23T14:38:49.479Z,3.75
2019-05-23T14:41:20.055Z,2.60
2019-05-23T14:43:50.908Z,3.50
2019-05-23T14:46:22.275Z,3.27
2019-05-23T14:48:59.295Z,4.25
2019-05-23T14:51:32.333Z,4.42
2019-05-23T14:54:03.410Z,3.27
2019-05-23T14:56:35.716Z,4.78
2019-05-23T14:59:05.594Z,4.22
2019-05-23T15:01:36.189Z,3.67
2019-05-23T15:04:06.664Z,3.40
2019-05-23T15:06:36.264Z,3.45
2019-05-23T15:09:09.742Z,3.87
2019-05-23T15:11:40.521Z,4.00
2019-05-23T15:14:10.050Z,3.20
2019-05-23T15:16:39.696Z,3.67
2019-05-23T15:19:09.161Z,3.80
2019-05-23T15:21:38.593Z,3.50
2019-05-23T15:24:08.961Z,3.47
2019-05-23T15:26:38.567Z,3.27
2019-05-23T15:29:08.077Z,3.80
2019-05-23T15:31:37.737Z,3.98
2019-05-23T15:34:08.080Z,3.98
2019-05-23T15:36:37.615Z,5.65
2019-05-23T15:39:10.149Z,3.40
2019-05-23T15:41:41.762Z,3.27
2019-05-23T15:44:25.699Z,3.43
2019-05-23T15:46:43.304Z,3.70
2019-05-23T15:49:14.314Z,2.85
2019-05-23T15:51:45.434Z,3.20
2019-05-23T15:54:22.441Z,3.58
2019-05-23T15:56:53.712Z,3.22
2019-05-23T15:59:34.722Z,3.45
2019-05-23T16:02:18.391Z,3.85
2019-05-23T16:04:50.453Z,4.20
2019-05-23T16:07:20.533Z,3.15
2019-05-23T16:09:50.049Z,4.05
2019-05-23T16:12:22.913Z,4.00
2019-05-23T16:14:53.893Z,3.87
2019-05-23T16:17:23.636Z,3.70
2019-05-23T16:19:53.252Z,3.42
2019-05-23T16:22:22.768Z,4.10
2019-05-23T16:24:52.347Z,3.50
2019-05-23T16:27:22.696Z,3.83
2019-05-23T16:29:52.249Z,3.17
2019-05-23T16:32:22.251Z,2.70
2019-05-23T16:34:53.020Z,3.42
2019-05-23T16:37:22.905Z,3.30
2019-05-23T16:39:52.516Z,3.55
2019-05-23T16:42:22.542Z,3.15
2019-05-23T16:44:54.418Z,3.20
2019-05-23T16:47:24.456Z,3.30
2019-05-23T16:49:54.266Z,3.00
2019-05-23T16:52:23.864Z,2.95
2019-05-23T16:54:55.309Z,2.83
2019-05-23T16:57:29.625Z,2.80
2019-05-23T17:00:01.632Z,2.85
2019-05-23T17:02:33.325Z,3.22
2019-05-23T17:05:10.389Z,2.55
2019-05-23T17:07:56.549Z,2.75
2019-05-23T17:10:33.985Z,2.60
2019-05-23T17:13:18.384Z,2.87
2019-05-23T17:16:01.380Z,3.30
2019-05-23T17:18:33.582Z,3.10
2019-05-23T17:21:20.050Z,2.92
2019-05-23T17:24:03.215Z,3.20
2019-05-23T17:26:37.365Z,2.98
2019-05-23T17:29:08.593Z,2.80
2019-05-23T17:31:44.094Z,3.45
2019-05-23T17:34:14.081Z,2.85
2019-05-23T17:36:43.629Z,2.80
2019-05-23T17:39:15.844Z,2.55
2019-05-23T17:41:45.611Z,2.62
2019-05-23T17:44:15.214Z,2.90
2019-05-23T17:46:45.797Z,3.05
2019-05-23T17:49:18.066Z,3.27
2019-05-23T17:51:47.793Z,3.20
2019-05-23T17:54:18.443Z,3.37
2019-05-23T17:56:48.151Z,2.95
2019-05-23T17:59:20.714Z,3.02
2019-05-23T18:01:51.170Z,3.00
2019-05-23T18:04:20.829Z,3.08
2019-05-23T18:06:50.695Z,2.95
2019-05-23T18:09:20.677Z,2.87
2019-05-23T18:11:50.662Z,2.65
2019-05-23T18:14:22.155Z,2.60
2019-05-23T18:16:51.694Z,3.08
2019-05-23T18:19:21.141Z,2.95
2019-05-23T18:21:51.422Z,2.92
2019-05-23T18:24:21.425Z,2.62
2019-05-23T18:26:51.056Z,2.42
2019-05-23T18:29:20.578Z,3.40
2019-05-23T18:31:52.134Z,2.92
2019-05-23T18:34:23.971Z,2.90
2019-05-23T18:36:53.905Z,2.47
2019-05-23T18:39:26.587Z,2.50
2019-05-23T18:41:56.413Z,2.62
2019-05-23T18:44:29.521Z,2.52
2019-05-23T18:47:10.088Z,2.90
2019-05-23T18:49:40.311Z,2.33
2019-05-23T18:52:10.141Z,2.70
2019-05-23T18:54:41.073Z,2.85
2019-05-23T18:57:11.338Z,5.08
2019-05-23T18:59:42.443Z,9.80
2019-05-23T19:02:12.348Z,18.82
2019-05-23T19:04:42.897Z,14.70
2019-05-23T19:07:14.073Z,5.03
2019-05-23T19:09:44.262Z,4.20
2019-05-23T19:12:14.032Z,3.02
2019-05-23T19:14:44.452Z,2.60
2019-05-23T19:17:17.901Z,3.10
2019-05-23T19:19:47.742Z,2.95
2019-05-23T19:22:17.617Z,3.08
2019-05-23T19:24:49.172Z,3.10
2019-05-23T19:27:19.886Z,8.18
2019-05-23T19:29:49.952Z,8.75
2019-05-23T19:32:20.671Z,10.90
2019-05-23T19:34:50.321Z,5.65
2019-05-23T19:37:27.988Z,3.20
2019-05-23T19:40:01.282Z,3.35
2019-05-23T19:45:32.993Z,3.25
2019-05-23T19:48:02.554Z,3.60
2019-05-23T19:50:32.969Z,3.10
2019-05-23T19:53:03.432Z,3.30
2019-05-23T19:55:40.346Z,2.80
2019-05-23T19:58:11.051Z,2.42
2019-05-23T20:00:44.283Z,2.75
2019-05-23T20:03:14.937Z,2.80
2019-05-23T20:05:47.472Z,2.85
2019-05-23T20:08:17.370Z,2.60
2019-05-23T20:10:50.303Z,2.47
2019-05-23T20:13:19.830Z,2.40
2019-05-23T20:15:49.668Z,2.65
2019-05-23T20:18:19.189Z,2.55
2019-05-23T20:20:49.698Z,2.20
2019-05-23T20:23:21.490Z,2.55
2019-05-23T20:25:52.331Z,2.90
2019-05-23T20:28:27.594Z,2.35
2019-05-23T20:30:58.606Z,3.00
2019-05-23T20:33:31.889Z,2.95
2019-05-23T20:36:03.032Z,2.75
2019-05-23T20:38:33.525Z,3.15
2019-05-23T20:41:04.891Z,2.70
2019-05-23T20:43:34.448Z,2.85
2019-05-23T20:46:05.355Z,3.00
2019-05-23T20:48:35.519Z,3.10
2019-05-23T20:51:08.722Z,3.33
2019-05-23T20:53:39.824Z,2.70
2019-05-23T20:56:10.747Z,2.80
2019-05-23T20:58:42.400Z,2.50
2019-05-23T21:01:16.389Z,3.30
2019-05-23T21:03:45.895Z,2.85
2019-05-23T21:06:16.318Z,3.20
2019-05-23T21:08:45.797Z,2.85
2019-05-23T21:11:15.758Z,2.95
2019-05-23T21:13:46.281Z,2.90
2019-05-23T21:16:15.772Z,2.80
2019-05-23T21:18:49.652Z,2.90
2019-05-23T21:21:17.352Z,2.85
2019-05-23T21:23:47.162Z,2.58
2019-05-23T21:26:17.796Z,2.42
2019-05-23T21:28:47.314Z,2.55
2019-05-23T21:31:18.598Z,2.60
2019-05-23T21:33:48.260Z,2.50
2019-05-23T21:36:18.248Z,2.62
2019-05-23T21:38:47.833Z,2.80
2019-05-23T21:41:19.115Z,2.33
2019-05-23T21:43:51.382Z,2.67
2019-05-23T21:46:20.813Z,2.40
2019-05-23T21:48:50.357Z,2.22
2019-05-23T21:51:20.525Z,2.40
2019-05-23T21:53:51.059Z,2.47
2019-05-23T21:56:20.548Z,2.80
2019-05-23T21:58:50.182Z,2.72
2019-05-23T22:01:22.622Z,2.30
2019-05-23T22:03:53.939Z,2.12
2019-05-23T22:06:44.582Z,2.52
2019-05-23T22:09:15.233Z,2.40
2019-05-23T22:11:44.699Z,2.22
2019-05-23T22:14:15.797Z,2.90
2019-05-23T22:16:47.742Z,2.80
2019-05-23T22:19:21.874Z,2.60
2019-05-23T22:24:45.533Z,2.55
2019-05-23T22:27:15.210Z,2.72
2019-05-23T22:29:44.692Z,2.65
2019-05-23T22:32:16.768Z,3.30
2019-05-23T22:34:48.110Z,2.80
2019-05-23T22:37:20.529Z,3.00
2019-05-23T22:39:49.972Z,2.75
2019-05-23T22:42:20.341Z,2.70
2019-05-23T22:44:49.845Z,3.00
2019-05-23T22:47:19.401Z,2.80
2019-05-23T22:49:48.978Z,2.77
2019-05-23T22:52:21.583Z,3.08
2019-05-23T22:54:54.137Z,3.02
2019-05-23T23:00:43.274Z,2.65
2019-05-23T23:03:14.920Z,2.95
2019-05-23T23:05:45.901Z,2.50
2019-05-23T23:08:18.117Z,2.98
2019-05-23T23:10:47.849Z,2.85
2019-05-23T23:13:17.431Z,2.80
2019-05-23T23:15:48.873Z,3.10
2019-05-23T23:18:20.990Z,3.10
2019-05-23T23:20:57.696Z,2.92
2019-05-23T23:23:28.390Z,3.02
2019-05-23T23:26:16.013Z,2.72
2019-05-23T23:28:55.891Z,3.42
2019-05-23T23:34:43.601Z,3.27
2019-05-23T23:37:13.795Z,3.47
2019-05-23T23:39:43.319Z,2.65
2019-05-23T23:42:16.760Z,3.10
2019-05-23T23:44:45.730Z,2.93
2019-05-23T23:47:32.914Z,3.00
2019-05-23T23:50:22.785Z,3.20
2019-05-23T23:53:09.976Z,2.70
2019-05-23T23:55:59.926Z,2.83
2019-05-23T23:58:28.702Z,3.02
